Wetterstation-Oberesslingen
Wetterdaten: aktuell Samstag, 09.05.2026 08:20
Datum Zeit Temperatur BodenT. -10 Temp+5cm Luftfeuchte Bod.Feuchte Luftdruck Regen Wind Richtung Richtung Sonnenschein ET Solar Taupunkt Windchill Windböen Empfang
09.05.2026 08:20 11,0 °C 13,9 °C 12,8 °C 89 % 77 cb 1017,7 hPa 0,0 l/m² 0,0 km/h (0 Bft) O-NO 67 ° 0 min 0,051 mm 109 W/m² 9,3 °C 11,0 °C 3,2 km/h (1 Bft) 100,00 %
09.05.2026 07:20 9,2 °C 13,9 °C 9,4 °C 95 % 77 cb 1017,8 hPa 0,0 l/m² 0,0 km/h (0 Bft) N 0 ° 0 min 0,000 mm 56 W/m² 8,4 °C 9,2 °C 0,0 km/h (0 Bft) 100,00 %
09.05.2026 06:20 7,1 °C 13,9 °C 5,6 °C 100 % 77 cb 1017,5 hPa 0,0 l/m² 0,0 km/h (0 Bft) N 0 ° 0 min 0,000 mm 18 W/m² 7,1 °C 7,1 °C 0,0 km/h (0 Bft) 100,00 %
09.05.2026 05:20 6,1 °C 14,4 °C 3,9 °C 100 % 78 cb 1017,6 hPa 0,0 l/m² 0,0 km/h (0 Bft) N 0 ° 0 min 0,000 mm 0 W/m² 6,1 °C 6,1 °C 0,0 km/h (0 Bft) 100,00 %
09.05.2026 04:20 6,4 °C 14,4 °C 3,3 °C 99 % 77 cb 1017,6 hPa 0,0 l/m² 0,0 km/h (0 Bft) O-NO 67 ° 0 min 0,000 mm 0 W/m² 6,3 °C 6,4 °C 1,6 km/h (1 Bft) 100,00 %
09.05.2026 03:20 7,1 °C 14,4 °C 3,9 °C 98 % 77 cb 1017,5 hPa 0,0 l/m² 0,0 km/h (0 Bft) N 0 ° 0 min 0,000 mm 0 W/m² 6,8 °C 7,1 °C 0,0 km/h (0 Bft) 100,00 %
09.05.2026 02:20 7,8 °C 15,0 °C 4,4 °C 96 % 77 cb 1017,4 hPa 0,0 l/m² 0,0 km/h (0 Bft) N 0 ° 0 min 0,000 mm 0 W/m² 7,2 °C 7,8 °C 0,0 km/h (0 Bft) 100,00 %
09.05.2026 01:20 9,3 °C 15,0 °C 5,6 °C 93 % 77 cb 1017,4 hPa 0,0 l/m² 0,0 km/h (0 Bft) O-NO 67 ° 0 min 0,000 mm 0 W/m² 8,2 °C 9,3 °C 1,6 km/h (1 Bft) 100,00 %
09.05.2026 00:20 10,0 °C 15,0 °C 7,2 °C 91 % 76 cb 1017,3 hPa 0,0 l/m² 0,0 km/h (0 Bft) N 0 ° 0 min 0,000 mm 0 W/m² 8,6 °C 10,0 °C 0,0 km/h (0 Bft) 99,12 %
08.05.2026 23:20 11,0 °C 15,0 °C 7,2 °C 88 % 75 cb 1017,3 hPa 0,0 l/m² 0,0 km/h (0 Bft) O-NO 67 ° 0 min 0,000 mm 0 W/m² 9,1 °C 11,0 °C 1,6 km/h (1 Bft) 100,00 %
08.05.2026 22:20 12,8 °C 15,0 °C 7,8 °C 80 % 74 cb 1016,9 hPa 0,0 l/m² 0,0 km/h (0 Bft) O-NO 67 ° 0 min 0,000 mm 0 W/m² 9,4 °C 12,8 °C 1,6 km/h (1 Bft) 100,00 %
08.05.2026 21:20 15,5 °C 15,0 °C 11,7 °C 69 % 73 cb 1016,4 hPa 0,0 l/m² 0,0 km/h (0 Bft) O-NO 67 ° 15 min 0,025 mm 0 W/m² 9,8 °C 15,5 °C 1,6 km/h (1 Bft) 100,00 %
08.05.2026 20:20 17,1 °C 15,0 °C 14,4 °C 66 % 72 cb 1015,4 hPa 0,0 l/m² 1,6 km/h (1 Bft) NO 45 ° 5 min 0,076 mm 30 W/m² 10,7 °C 17,1 °C 6,4 km/h (2 Bft) 100,00 %
08.05.2026 19:20 19,2 °C 15,0 °C 16,7 °C 59 % 71 cb 1014,9 hPa 0,0 l/m² 3,2 km/h (1 Bft) O-NO 67 ° 60 min 0,178 mm 144 W/m² 11,0 °C 19,2 °C 9,7 km/h (2 Bft) 98,25 %
08.05.2026 18:20 21,4 °C 14,4 °C 26,7 °C 54 % 70 cb 1014,7 hPa 0,0 l/m² 1,6 km/h (1 Bft) O 90 ° 50 min 0,229 mm 302 W/m² 11,7 °C 21,4 °C 8,0 km/h (2 Bft) 100,00 %
08.05.2026 17:20 21,8 °C 14,4 °C 28,9 °C 50 % 70 cb 1014,9 hPa 0,0 l/m² 1,6 km/h (1 Bft) O 90 ° 50 min 0,381 mm 339 W/m² 10,9 °C 21,8 °C 4,8 km/h (1 Bft) 100,00 %
08.05.2026 16:20 22,6 °C 13,9 °C 35,0 °C 49 % 69 cb 1015,3 hPa 0,0 l/m² 1,6 km/h (1 Bft) O-NO 67 ° 50 min 0,356 mm 647 W/m² 11,3 °C 22,6 °C 9,7 km/h (2 Bft) 100,00 %
08.05.2026 15:20 20,5 °C 13,9 °C 29,4 °C 53 % 69 cb 1015,8 hPa 0,0 l/m² 1,6 km/h (1 Bft) O-NO 67 ° 15 min 0,330 mm 186 W/m² 10,6 °C 20,5 °C 4,8 km/h (1 Bft) 100,00 %
08.05.2026 14:20 20,4 °C 13,3 °C 31,1 °C 57 % 69 cb 1016,3 hPa 0,0 l/m² 3,2 km/h (1 Bft) N-NO 22 ° 45 min 0,483 mm 889 W/m² 11,6 °C 20,4 °C 8,0 km/h (2 Bft) 100,00 %
08.05.2026 13:20 21,0 °C 13,3 °C 33,9 °C 56 % 70 cb 1016,6 hPa 0,0 l/m² 1,6 km/h (1 Bft) O-SO 112 ° 45 min 0,254 mm 821 W/m² 11,9 °C 21,0 °C 6,4 km/h (2 Bft) 100,00 %
08.05.2026 12:20 17,1 °C 13,3 °C 19,4 °C 67 % 71 cb 1017,2 hPa 0,0 l/m² 0,0 km/h (0 Bft) O 90 ° 20 min 0,381 mm 193 W/m² 10,9 °C 17,1 °C 1,6 km/h (1 Bft) 100,00 %
08.05.2026 11:20 19,4 °C 13,3 °C 31,7 °C 62 % 72 cb 1017,3 hPa 0,0 l/m² 0,0 km/h (0 Bft) SW 225 ° 60 min 0,330 mm 703 W/m² 11,9 °C 19,4 °C 3,2 km/h (1 Bft) 100,00 %
08.05.2026 10:20 16,1 °C 13,3 °C 14,4 °C 72 % 72 cb 1017,6 hPa 0,0 l/m² 1,6 km/h (1 Bft) W 270 ° 60 min 0,229 mm 538 W/m² 11,0 °C 16,1 °C 4,8 km/h (1 Bft) 100,00 %
08.05.2026 09:20 12,9 °C 13,3 °C 11,7 °C 82 % 72 cb 1017,7 hPa 0,0 l/m² 1,6 km/h (1 Bft) O-SO 112 ° 20 min 0,127 mm 410 W/m² 9,9 °C 12,9 °C 6,4 km/h (2 Bft) 100,00 %
08.05.2026 09:00 11,3 °C 13,3 °C 10,0 °C 85 % 72 cb 1017,6 hPa 0,0 l/m² 3,2 km/h (1 Bft) S-SO 157 ° 0 min 0,127 mm 353 W/m² 8,9 °C 11,3 °C 8,0 km/h (2 Bft) 100,00 %
_ Min-Zeit 05:00 09:00 03:55 16:25 13:50 18:00 - 11:20 - - - - - 05:00 05:00 21:30 00:05
Minimum _ 5,9 °C 13,3 °C 3,3 °C 47 % 69 cb 1014,6 hPa - 0,0 km/h (0 Bft) - - - - - 5,8 °C 5,9 °C 0,0 km/h (0 Bft) 57,02 %
_ Max-Zeit 16:30 19:00 13:40 04:35 04:55 07:05 09:00 13:55 - - 09:00 14:00 13:40 11:35 16:25 18:15 09:00
Maximum _ 23,2 °C 15,0 °C 37,2 °C 100 % 78 cb 1017,8 hPa 0,0 l/m² 4,8 km/h
N-NO (1 Bft)
- - 5 min 0,483 mm 947 W/m² 13,1 °C 23,0 °C 14,5 km/h
N (3 Bft)
100,00 %
Durchschnitt _ 14,1 °C 14,2 °C 15,3 °C 76 % 73 cb 1016,8 hPa #0,0 l/m² 1,2 km/h (1 Bft) N - #0 min. #0,051 mm 64 W/m² 9,5 °C 14,1 °C 3,8 km/h (1 Bft) 99,78 %